createdAt,value
2019-05-11T00:02:24.532Z,100749.20
2019-05-11T00:04:54.569Z,100750.05
2019-05-11T00:07:24.182Z,100746.58
2019-05-11T00:09:58.415Z,100756.22
2019-05-11T00:12:27.560Z,100750.08
2019-05-11T00:14:57.586Z,100757.08
2019-05-11T00:17:27.307Z,100759.70
2019-05-11T00:19:56.871Z,100766.72
2019-05-11T00:22:26.879Z,100764.96
2019-05-11T00:24:56.896Z,100762.34
2019-05-11T00:27:26.743Z,100767.59
2019-05-11T00:29:56.782Z,100765.84
2019-05-11T00:32:26.460Z,100773.72
2019-05-11T00:34:56.524Z,100771.08
2019-05-11T00:37:26.644Z,100774.61
2019-05-11T00:39:56.543Z,100774.61
2019-05-11T00:42:26.370Z,100779.41
2019-05-11T00:44:56.446Z,100783.36
2019-05-11T00:47:26.022Z,100774.61
2019-05-11T00:49:55.705Z,100782.05
2019-05-11T00:52:25.467Z,100778.98
2019-05-11T00:54:54.981Z,100784.22
2019-05-11T00:57:24.562Z,100778.98
2019-05-11T00:59:54.540Z,100783.78
2019-05-11T01:02:24.505Z,100781.57
2019-05-11T01:04:54.139Z,100788.56
2019-05-11T01:07:23.962Z,100788.59
2019-05-11T01:09:53.662Z,100785.52
2019-05-11T01:12:23.406Z,100788.56
2019-05-11T01:14:53.300Z,100793.83
2019-05-11T01:17:23.573Z,100795.55
2019-05-11T01:19:53.146Z,100798.61
2019-05-11T01:22:23.316Z,100792.91
2019-05-11T01:24:52.853Z,100795.56
2019-05-11T01:27:22.652Z,100802.55
2019-05-11T01:29:52.434Z,100666.39
2019-05-11T01:32:21.998Z,100801.67
2019-05-11T01:34:52.158Z,100800.80
2019-05-11T01:37:22.414Z,100801.25
2019-05-11T01:39:51.928Z,100808.64
2019-05-11T01:42:24.420Z,100807.77
2019-05-11T01:44:55.152Z,100802.50
2019-05-11T01:47:25.523Z,100812.55
2019-05-11T01:49:55.147Z,100809.48
2019-05-11T01:52:24.891Z,100816.06
2019-05-11T01:54:54.757Z,100821.77
2019-05-11T01:57:24.439Z,100817.83
2019-05-11T01:59:58.217Z,100818.27
2019-05-11T02:02:27.955Z,100819.14
2019-05-11T02:05:17.989Z,100812.58
2019-05-11T02:07:47.867Z,100816.50
2019-05-11T02:10:17.428Z,100816.47
2019-05-11T02:12:49.071Z,100814.71
2019-05-11T02:15:20.501Z,100812.56
2019-05-11T02:17:50.458Z,100812.56
2019-05-11T02:20:19.942Z,100815.61
2019-05-11T02:22:52.380Z,100817.33
2019-05-11T02:25:22.125Z,100815.58
2019-05-11T02:27:59.949Z,100819.95
2019-05-11T02:30:32.313Z,100825.19
2019-05-11T02:33:02.348Z,100821.67
2019-05-11T02:35:32.861Z,100829.53
2019-05-11T02:38:02.961Z,100823.89
2019-05-11T02:40:35.784Z,100835.25
2019-05-11T02:43:08.026Z,100828.68
2019-05-11T02:45:42.721Z,100833.05
2019-05-11T02:48:13.259Z,100836.57
2019-05-11T02:50:43.985Z,100836.57
2019-05-11T02:53:16.462Z,100836.51
2019-05-11T02:55:47.579Z,100840.00
2019-05-11T02:58:17.924Z,100840.92
2019-05-11T03:00:48.493Z,100844.83
2019-05-11T03:03:18.068Z,100841.75
2019-05-11T03:05:50.675Z,100840.00
2019-05-11T03:08:20.452Z,100840.00
2019-05-11T03:10:51.542Z,100842.62
2019-05-11T03:13:20.996Z,100844.38
2019-05-11T03:15:52.957Z,100853.57
2019-05-11T03:18:27.750Z,100854.86
2019-05-11T03:20:57.789Z,100853.55
2019-05-11T03:23:28.519Z,100861.81
2019-05-11T03:25:58.451Z,100851.77
2019-05-11T03:28:28.135Z,100856.14
2019-05-11T03:30:57.974Z,100846.52
2019-05-11T03:33:30.124Z,100852.21
2019-05-11T03:35:59.932Z,100855.69
2019-05-11T03:38:30.534Z,100855.69
2019-05-11T03:41:00.668Z,100854.84
2019-05-11T03:43:30.257Z,100856.14
2019-05-11T03:46:00.385Z,100857.01
2019-05-11T03:48:30.170Z,100856.55
2019-05-11T03:50:59.821Z,100860.94
2019-05-11T03:53:29.993Z,100861.83
2019-05-11T03:56:00.006Z,100864.45
2019-05-11T03:58:33.191Z,100866.18
2019-05-11T04:01:03.137Z,100862.25
2019-05-11T04:03:34.176Z,100865.36
2019-05-11T04:06:05.699Z,100875.42
2019-05-11T04:08:37.685Z,100876.76
2019-05-11T04:11:12.961Z,100878.09
2019-05-11T04:13:42.851Z,100882.89
2019-05-11T04:16:12.935Z,100882.90
2019-05-11T04:18:42.840Z,100887.31
2019-05-11T04:21:12.757Z,100883.82
2019-05-11T04:23:42.445Z,100884.71
2019-05-11T04:26:12.234Z,100884.71
2019-05-11T04:28:41.899Z,100892.56
2019-05-11T04:31:11.613Z,100890.84
2019-05-11T04:33:41.474Z,100890.84
2019-05-11T04:36:12.115Z,100894.34
2019-05-11T04:38:42.324Z,100896.07
2019-05-11T04:41:11.952Z,100902.23
2019-05-11T04:43:41.637Z,100902.66
2019-05-11T04:46:11.714Z,100907.47
2019-05-11T04:48:41.368Z,100911.86
2019-05-11T04:51:13.054Z,100912.73
2019-05-11T04:53:43.441Z,100920.16
2019-05-11T04:56:13.030Z,100920.17
2019-05-11T04:58:42.876Z,100915.36
2019-05-11T05:01:12.826Z,100924.98
2019-05-11T05:03:47.655Z,100919.77
2019-05-11T05:06:22.576Z,100919.77
2019-05-11T05:08:45.549Z,100929.83
2019-05-11T05:11:15.683Z,100931.13
2019-05-11T05:13:45.339Z,100926.78
2019-05-11T05:16:15.065Z,100934.70
2019-05-11T05:18:45.311Z,100925.52
2019-05-11T05:21:15.214Z,100937.36
2019-05-11T05:23:45.451Z,100932.95
2019-05-11T05:26:15.662Z,100936.45
2019-05-11T05:28:46.125Z,100935.59
2019-05-11T05:31:18.484Z,100944.39
2019-05-11T05:33:50.461Z,100941.77
2019-05-11T05:36:22.675Z,100957.04
2019-05-11T05:38:53.277Z,100958.79
2019-05-11T05:41:23.297Z,100954.86
2019-05-11T05:43:53.058Z,100957.53
2019-05-11T05:46:25.626Z,100960.55
2019-05-11T05:48:56.460Z,100958.81
2019-05-11T05:51:28.825Z,100962.77
2019-05-11T05:54:00.868Z,100968.48
2019-05-11T05:56:30.692Z,100968.48
2019-05-11T05:59:00.354Z,100968.06
2019-05-11T06:01:30.468Z,100971.59
2019-05-11T06:04:00.719Z,100975.92
2019-05-11T06:06:30.338Z,100976.36
2019-05-11T06:08:59.876Z,100982.94
2019-05-11T06:11:32.546Z,100978.58
2019-05-11T06:14:02.548Z,100975.09
2019-05-11T06:16:33.516Z,100986.88
2019-05-11T06:19:03.655Z,100997.41
2019-05-11T06:21:33.846Z,100992.18
2019-05-11T06:24:06.484Z,100999.16
2019-05-11T06:26:35.569Z,101004.83
2019-05-11T06:29:07.338Z,101012.73
2019-05-11T06:31:37.051Z,101009.63
2019-05-11T06:34:06.782Z,101014.00
2019-05-11T06:36:36.962Z,101016.62
2019-05-11T06:39:08.968Z,101017.92
2019-05-11T06:41:41.167Z,101032.88
2019-05-11T06:44:10.849Z,101032.42
2019-05-11T06:46:41.126Z,101025.09
2019-05-11T06:49:11.259Z,101025.09
2019-05-11T06:51:41.063Z,101036.91
2019-05-11T06:54:11.418Z,101042.62
2019-05-11T06:56:41.272Z,101036.45
2019-05-11T06:59:11.123Z,101042.57
2019-05-11T07:01:40.722Z,101040.02
2019-05-11T07:04:10.900Z,101065.42
2019-05-11T07:06:40.792Z,101044.36
2019-05-11T07:09:12.054Z,101043.97
2019-05-11T07:11:43.680Z,101038.36
2019-05-11T07:14:20.610Z,101038.36
2019-05-11T07:16:49.896Z,101044.49
2019-05-11T07:19:20.012Z,101046.24
2019-05-11T07:21:50.069Z,101046.69
2019-05-11T07:24:19.846Z,101047.58
2019-05-11T07:26:49.624Z,101051.54
2019-05-11T07:29:19.740Z,101051.54
2019-05-11T07:31:51.873Z,101059.41
2019-05-11T07:34:23.971Z,101064.19
2019-05-11T07:36:54.010Z,101069.03
2019-05-11T07:39:23.958Z,101061.20
2019-05-11T07:41:58.955Z,101061.20
2019-05-11T07:44:38.673Z,101069.06
2019-05-11T07:47:07.999Z,101066.44
2019-05-11T07:49:38.456Z,101073.82
2019-05-11T07:52:08.528Z,101067.69
2019-05-11T07:54:40.794Z,101061.28
2019-05-11T07:57:11.267Z,101062.36
2019-05-11T07:59:41.377Z,101070.94
2019-05-11T08:02:12.547Z,101071.59
2019-05-11T08:04:48.142Z,101068.98
2019-05-11T08:07:22.560Z,101075.27
2019-05-11T08:09:53.381Z,101068.55
2019-05-11T08:12:23.852Z,101072.98
2019-05-11T08:15:02.917Z,101075.01
2019-05-11T08:17:25.804Z,101088.86
2019-05-11T08:19:57.915Z,101087.30
2019-05-11T08:22:28.432Z,101098.17
2019-05-11T08:25:00.435Z,101094.95
2019-05-11T08:27:30.689Z,101095.48
2019-05-11T08:30:00.904Z,101099.88
2019-05-11T08:32:30.584Z,101103.72
2019-05-11T08:35:00.654Z,101106.91
2019-05-11T08:37:30.379Z,101108.05
2019-05-11T08:40:00.199Z,101109.23
2019-05-11T08:42:30.115Z,101108.23
2019-05-11T08:45:16.120Z,101108.78
2019-05-11T08:47:32.666Z,101112.38
2019-05-11T08:50:03.122Z,101107.55
2019-05-11T08:52:33.990Z,101114.19
2019-05-11T08:55:03.817Z,101109.53
2019-05-11T08:57:34.337Z,101110.67
2019-05-11T09:00:04.576Z,101116.45
2019-05-11T09:02:34.402Z,101115.61
2019-05-11T09:05:04.465Z,101117.48
2019-05-11T09:07:34.714Z,101116.77
2019-05-11T09:10:04.465Z,101121.87
2019-05-11T09:12:34.517Z,101124.54
2019-05-11T09:15:04.842Z,101126.80
2019-05-11T09:17:38.343Z,101127.20
2019-05-11T09:20:08.960Z,101122.28
2019-05-11T09:22:44.676Z,101130.72
2019-05-11T09:25:15.167Z,101138.65
2019-05-11T09:27:44.960Z,101131.03
2019-05-11T09:30:18.391Z,101138.66
2019-05-11T09:32:47.951Z,101140.75
2019-05-11T09:35:19.227Z,101141.08
2019-05-11T09:37:48.830Z,101146.09
2019-05-11T09:40:19.223Z,100947.20
2019-05-11T09:42:49.469Z,101152.63
2019-05-11T09:45:19.089Z,101149.33
2019-05-11T09:47:49.018Z,101153.41
2019-05-11T09:50:18.974Z,101162.69
2019-05-11T09:52:49.257Z,101160.98
2019-05-11T09:55:19.437Z,101165.38
2019-05-11T09:57:50.078Z,101167.60
2019-05-11T10:00:20.318Z,101173.39
2019-05-11T10:02:50.327Z,101176.50
2019-05-11T10:05:21.618Z,101170.34
2019-05-11T10:07:51.518Z,101179.55
2019-05-11T10:10:21.296Z,101179.56
2019-05-11T10:12:52.945Z,101184.84
2019-05-11T10:15:23.552Z,101184.89
2019-05-11T10:17:55.991Z,101183.20
2019-05-11T10:20:28.481Z,101184.38
2019-05-11T10:22:59.264Z,101195.36
2019-05-11T10:25:29.520Z,101200.13
2019-05-11T10:27:59.214Z,101200.06
2019-05-11T10:30:29.472Z,101209.06
2019-05-11T10:33:01.730Z,101209.41
2019-05-11T10:35:31.662Z,101214.68
2019-05-11T10:38:01.797Z,101209.34
2019-05-11T10:40:32.252Z,101208.17
2019-05-11T10:43:01.944Z,101206.85
2019-05-11T10:45:31.673Z,101206.03
2019-05-11T10:48:01.991Z,101204.25
2019-05-11T10:50:32.494Z,101205.84
2019-05-11T10:53:02.167Z,101208.66
2019-05-11T10:55:32.698Z,101204.17
2019-05-11T10:58:02.968Z,101215.52
2019-05-11T11:00:33.398Z,101220.32
2019-05-11T11:03:03.956Z,101213.66
2019-05-11T11:05:38.440Z,101211.03
2019-05-11T11:08:08.466Z,101214.09
2019-05-11T11:10:38.285Z,101228.17
2019-05-11T11:13:09.903Z,101218.18
2019-05-11T11:15:39.703Z,101232.20
2019-05-11T11:18:09.318Z,101220.17
2019-05-11T11:20:41.512Z,101229.03
2019-05-11T11:23:11.466Z,101228.54
2019-05-11T11:25:41.597Z,101229.36
2019-05-11T11:28:11.536Z,101239.04
2019-05-11T11:30:41.389Z,101228.95
2019-05-11T11:33:12.568Z,101231.59
2019-05-11T11:35:43.621Z,101226.63
2019-05-11T11:38:13.332Z,101222.12
2019-05-11T11:40:43.120Z,101235.78
2019-05-11T11:43:17.895Z,101233.22
2019-05-11T11:45:49.686Z,101238.05
2019-05-11T11:48:19.981Z,101240.65
2019-05-11T11:50:52.287Z,101236.34
2019-05-11T11:53:22.715Z,101244.23
2019-05-11T11:55:53.822Z,101247.78
2019-05-11T11:58:27.542Z,101252.70
2019-05-11T12:00:58.668Z,101251.92
2019-05-11T12:03:28.853Z,101260.39
2019-05-11T12:05:59.125Z,101257.59
2019-05-11T12:08:31.965Z,101262.77
2019-05-11T12:11:03.391Z,101261.84
2019-05-11T12:13:34.511Z,101263.22
2019-05-11T12:16:07.551Z,101259.58
2019-05-11T12:18:38.091Z,101275.27
2019-05-11T12:21:08.497Z,101274.19
2019-05-11T12:23:38.579Z,101263.93
2019-05-11T12:26:08.679Z,101273.98
2019-05-11T12:28:38.993Z,101271.05
2019-05-11T12:31:10.091Z,101283.22
2019-05-11T12:33:41.684Z,101278.38
2019-05-11T12:36:13.522Z,101268.13
2019-05-11T12:38:43.795Z,101275.52
2019-05-11T12:41:13.736Z,101278.30
2019-05-11T12:43:45.085Z,101285.42
2019-05-11T12:46:15.669Z,101279.45
2019-05-11T12:48:49.105Z,101292.00
2019-05-11T12:51:38.424Z,101291.25
2019-05-11T12:54:09.779Z,101289.77
2019-05-11T12:56:44.012Z,101295.05
2019-05-11T12:59:14.355Z,101290.14
2019-05-11T13:01:44.042Z,101294.91
2019-05-11T13:04:14.005Z,101305.76
2019-05-11T13:06:45.140Z,101307.41
2019-05-11T13:09:14.900Z,101308.61
2019-05-11T13:11:45.627Z,101315.44
2019-05-11T13:14:18.464Z,101313.30
2019-05-11T13:16:49.216Z,101321.55
2019-05-11T13:19:19.957Z,101322.05
2019-05-11T13:21:50.787Z,101327.72
2019-05-11T13:24:22.393Z,101322.91
2019-05-11T13:26:53.683Z,101316.46
2019-05-11T13:29:24.083Z,101325.25
2019-05-11T13:31:54.076Z,101322.11
2019-05-11T13:34:30.802Z,101324.87
2019-05-11T13:36:58.463Z,101319.02
2019-05-11T13:39:28.635Z,101314.05
2019-05-11T13:41:58.543Z,101317.66
2019-05-11T13:44:28.211Z,101315.44
2019-05-11T13:46:58.828Z,101322.88
2019-05-11T13:49:32.466Z,101319.39
2019-05-11T13:52:02.179Z,101331.95
2019-05-11T13:54:33.631Z,101316.91
2019-05-11T13:57:03.568Z,101325.62
2019-05-11T13:59:33.841Z,101328.24
2019-05-11T14:02:03.581Z,101344.11
2019-05-11T14:04:33.981Z,101330.66
2019-05-11T14:07:03.661Z,101329.20
2019-05-11T14:09:33.387Z,101339.98
2019-05-11T14:12:09.286Z,101340.91
2019-05-11T14:14:40.015Z,101345.16
2019-05-11T14:17:09.573Z,101338.53
2019-05-11T14:19:40.069Z,101334.41
2019-05-11T14:22:09.850Z,101335.13
2019-05-11T14:24:39.856Z,101335.96
2019-05-11T14:27:09.860Z,101335.14
2019-05-11T14:29:39.947Z,101346.39
2019-05-11T14:32:10.340Z,101349.58
2019-05-11T14:34:40.580Z,101349.86
2019-05-11T14:37:10.644Z,101348.55
2019-05-11T14:39:40.246Z,101346.76
2019-05-11T14:42:10.390Z,101346.81
2019-05-11T14:44:40.831Z,101355.64
2019-05-11T14:47:11.131Z,101351.00
2019-05-11T14:49:41.201Z,101362.00
2019-05-11T14:52:11.042Z,101359.53
2019-05-11T14:54:41.220Z,101356.09
2019-05-11T14:57:12.109Z,101358.47
2019-05-11T14:59:42.779Z,101358.67
2019-05-11T15:02:30.509Z,101364.41
2019-05-11T15:05:03.071Z,101358.27
2019-05-11T15:07:33.098Z,101366.20
2019-05-11T15:10:07.880Z,101350.26
2019-05-11T15:12:39.672Z,101362.65
2019-05-11T15:15:10.868Z,101362.64
2019-05-11T15:17:42.161Z,101361.42
2019-05-11T15:20:17.690Z,101363.36
2019-05-11T15:22:50.041Z,101376.41
2019-05-11T15:25:21.130Z,101374.17
2019-05-11T15:27:51.368Z,101372.44
2019-05-11T15:30:21.148Z,101375.92
2019-05-11T15:32:51.241Z,101383.94
2019-05-11T15:35:21.754Z,101374.14
2019-05-11T15:37:52.543Z,101380.28
2019-05-11T15:40:27.661Z,101371.60
2019-05-11T15:42:58.620Z,101382.72
2019-05-11T15:45:28.450Z,101388.42
2019-05-11T15:47:58.921Z,101383.98
2019-05-11T15:50:29.331Z,101386.60
2019-05-11T15:52:59.426Z,101390.05
2019-05-11T15:55:29.199Z,101391.38
2019-05-11T15:57:58.859Z,101390.56
2019-05-11T16:00:28.960Z,101392.66
2019-05-11T16:02:58.711Z,101393.61
2019-05-11T16:05:28.665Z,101400.69
2019-05-11T16:08:01.730Z,101397.20
2019-05-11T16:10:31.108Z,101408.18
2019-05-11T16:13:00.786Z,101411.27
2019-05-11T16:15:30.860Z,101411.20
2019-05-11T16:18:00.712Z,101420.81
2019-05-11T16:20:31.080Z,101419.92
2019-05-11T16:23:00.965Z,101419.00
2019-05-11T16:25:30.934Z,101422.25
2019-05-11T16:28:01.647Z,101435.00
2019-05-11T16:30:31.580Z,101426.03
2019-05-11T16:33:03.753Z,101431.39
2019-05-11T16:35:34.590Z,101427.34
2019-05-11T16:38:04.410Z,101437.47
2019-05-11T16:40:34.232Z,101434.88
2019-05-11T16:43:03.993Z,101435.73
2019-05-11T16:45:34.113Z,101434.03
2019-05-11T16:48:04.170Z,101436.20
2019-05-11T16:50:33.934Z,101441.58
2019-05-11T16:53:03.738Z,101437.64
2019-05-11T16:55:33.391Z,101443.89
2019-05-11T16:58:03.705Z,101452.77
2019-05-11T17:00:33.533Z,101451.88
2019-05-11T17:03:03.948Z,101451.05
2019-05-11T17:05:34.133Z,101462.59
2019-05-11T17:08:03.621Z,101461.68
2019-05-11T17:10:33.374Z,101467.84
2019-05-11T17:13:03.215Z,101463.45
2019-05-11T17:15:32.956Z,101472.73
2019-05-11T17:18:02.821Z,101467.42
2019-05-11T17:20:33.572Z,101467.45
2019-05-11T17:23:04.050Z,101467.03
2019-05-11T17:25:33.751Z,101472.31
2019-05-11T17:28:06.791Z,101474.02
2019-05-11T17:30:35.026Z,101466.16
2019-05-11T17:33:05.136Z,101470.55
2019-05-11T17:35:35.012Z,101463.98
2019-05-11T17:38:05.028Z,101469.70
2019-05-11T17:40:35.118Z,101478.92
2019-05-11T17:43:09.038Z,101471.47
2019-05-11T17:45:39.585Z,101476.75
2019-05-11T17:48:09.548Z,101482.44
2019-05-11T17:50:39.126Z,101485.53
2019-05-11T17:53:09.396Z,101485.08
2019-05-11T17:55:41.320Z,101487.28
2019-05-11T17:58:11.678Z,101487.28
2019-05-11T18:00:41.833Z,101491.69
2019-05-11T18:03:12.773Z,101486.38
2019-05-11T18:05:43.283Z,101489.45
2019-05-11T18:08:13.291Z,101496.94
2019-05-11T18:10:47.899Z,101493.38
2019-05-11T18:13:18.550Z,101500.42
2019-05-11T18:15:49.397Z,101495.62
2019-05-11T18:18:19.895Z,101497.78
2019-05-11T18:20:50.929Z,101497.80
2019-05-11T18:23:20.708Z,101503.05
2019-05-11T18:25:50.658Z,101508.33
2019-05-11T18:28:20.357Z,101506.14
2019-05-11T18:30:50.742Z,101509.64
2019-05-11T18:33:22.779Z,101507.87
2019-05-11T18:35:53.157Z,101511.41
2019-05-11T18:38:23.407Z,101512.28
2019-05-11T18:40:53.538Z,101510.94
2019-05-11T18:43:24.890Z,101516.20
2019-05-11T18:45:58.088Z,101508.73
2019-05-11T18:48:28.931Z,101507.84
2019-05-11T18:50:59.327Z,101510.88
2019-05-11T18:53:29.180Z,101512.61
2019-05-11T18:55:59.305Z,101515.25
2019-05-11T18:58:29.016Z,101516.56
2019-05-11T19:00:59.364Z,101513.47
2019-05-11T19:03:29.062Z,101512.12
2019-05-11T19:06:00.981Z,101514.31
2019-05-11T19:08:38.572Z,101513.42
2019-05-11T19:11:11.527Z,101509.91
2019-05-11T19:13:42.325Z,101515.14
2019-05-11T19:16:13.754Z,101518.67
2019-05-11T19:18:47.851Z,101523.01
2019-05-11T19:21:18.224Z,101516.87
2019-05-11T19:23:48.749Z,101519.48
2019-05-11T19:26:19.484Z,101521.27
2019-05-11T19:28:50.533Z,101523.92
2019-05-11T19:31:20.445Z,101516.89
2019-05-11T19:33:50.429Z,101514.26
2019-05-11T19:36:20.135Z,101520.38
2019-05-11T19:38:52.271Z,101522.12
2019-05-11T19:41:23.238Z,101519.45
2019-05-11T19:43:52.958Z,101518.55
2019-05-11T19:46:22.872Z,101526.39
2019-05-11T19:48:52.949Z,101522.90
2019-05-11T19:51:24.164Z,101526.41
2019-05-11T19:53:54.704Z,101534.75
2019-05-11T19:56:24.576Z,101535.99
2019-05-11T19:58:57.971Z,101534.25
2019-05-11T20:01:29.575Z,101528.95
2019-05-11T20:04:00.155Z,101539.94
2019-05-11T20:06:30.998Z,101537.30
2019-05-11T20:09:01.773Z,101536.88
2019-05-11T20:11:32.547Z,101538.59
2019-05-11T20:14:02.970Z,101545.18
2019-05-11T20:16:32.828Z,101543.01
2019-05-11T20:19:02.806Z,101544.27
2019-05-11T20:21:33.211Z,101546.90
2019-05-11T20:24:03.218Z,101543.01
2019-05-11T20:26:33.642Z,101538.60
2019-05-11T20:29:03.951Z,101548.22
2019-05-11T20:31:33.985Z,101549.53
2019-05-11T20:34:10.435Z,101546.05
2019-05-11T20:36:41.194Z,101548.19
2019-05-11T20:39:12.382Z,101547.27
2019-05-11T20:41:44.193Z,101559.55
2019-05-11T20:44:14.775Z,101562.58
2019-05-11T20:46:44.865Z,101562.15
2019-05-11T20:49:15.539Z,101563.03
2019-05-11T20:51:48.474Z,101565.67
2019-05-11T20:54:19.417Z,101561.23
2019-05-11T20:56:50.136Z,101564.75
2019-05-11T20:59:21.172Z,101562.55
2019-05-11T21:01:51.711Z,101562.05
2019-05-11T21:04:22.018Z,101562.02
2019-05-11T21:06:53.492Z,101568.17
2019-05-11T21:09:24.618Z,101565.54
2019-05-11T21:11:54.987Z,101571.63
2019-05-11T21:14:25.012Z,101570.77
2019-05-11T21:16:54.884Z,101573.36
2019-05-11T21:19:24.603Z,101568.95
2019-05-11T21:21:55.136Z,101456.95
2019-05-11T21:24:24.878Z,101580.37
2019-05-11T21:26:54.634Z,101579.91
2019-05-11T21:29:24.687Z,101573.72
2019-05-11T21:31:55.201Z,101578.05
2019-05-11T21:34:25.084Z,101578.91
2019-05-11T21:36:55.068Z,101582.81
2019-05-11T21:39:25.525Z,101591.55
2019-05-11T21:41:55.235Z,101593.34
2019-05-11T21:44:25.180Z,101600.38
2019-05-11T21:46:54.829Z,101610.52
2019-05-11T21:49:24.596Z,101604.78
2019-05-11T21:52:04.206Z,101602.16
2019-05-11T21:54:30.024Z,101601.23
2019-05-11T21:56:57.927Z,101614.38
2019-05-11T21:59:28.223Z,101608.69
2019-05-11T22:01:57.847Z,101616.58
2019-05-11T22:04:28.495Z,101617.86
2019-05-11T22:06:59.306Z,101613.88
2019-05-11T22:09:29.205Z,101613.41
2019-05-11T22:11:58.878Z,101615.98
2019-05-11T22:14:29.950Z,101618.66
2019-05-11T22:17:02.450Z,101623.97
2019-05-11T22:19:32.153Z,101630.54
2019-05-11T22:22:02.329Z,101632.70
2019-05-11T22:24:32.759Z,101644.88
2019-05-11T22:27:02.758Z,101649.23
2019-05-11T22:29:32.455Z,101651.86
2019-05-11T22:32:07.682Z,101660.14
2019-05-11T22:34:37.831Z,101662.25
2019-05-11T22:37:08.742Z,101656.84
2019-05-11T22:39:38.734Z,101673.41
2019-05-11T22:42:08.999Z,101672.89
2019-05-11T22:44:38.885Z,101674.99
2019-05-11T22:47:09.058Z,101686.77
2019-05-11T22:49:39.365Z,101681.92
2019-05-11T22:52:09.335Z,101681.45
2019-05-11T22:54:39.219Z,101693.16
2019-05-11T22:57:11.694Z,101695.74
2019-05-11T22:59:42.013Z,101700.98
2019-05-11T23:02:11.543Z,101691.27
2019-05-11T23:04:41.702Z,101693.95
2019-05-11T23:07:15.497Z,101702.72
2019-05-11T23:09:45.514Z,101710.61
2019-05-11T23:12:18.207Z,101712.28
2019-05-11T23:14:50.642Z,101712.28
2019-05-11T23:17:20.714Z,101721.04
2019-05-11T23:19:52.127Z,101721.89
2019-05-11T23:22:23.194Z,101722.84
2019-05-11T23:24:53.889Z,101728.17
2019-05-11T23:27:24.423Z,101727.69
2019-05-11T23:29:54.667Z,101724.80
2019-05-11T23:32:26.081Z,101724.03
2019-05-11T23:34:57.364Z,101724.03
2019-05-11T23:37:27.930Z,101730.08
2019-05-11T23:39:58.489Z,101741.30
2019-05-11T23:42:30.960Z,101739.50
2019-05-11T23:45:01.548Z,101740.88
2019-05-11T23:47:32.896Z,101745.72
2019-05-11T23:50:03.240Z,101741.30
2019-05-11T23:52:33.682Z,101742.12
2019-05-11T23:55:04.548Z,101747.38
2019-05-11T23:57:34.241Z,101743.80
